createdAt,value
2019-02-27T00:00:53.597Z,64.80
2019-02-27T00:03:28.867Z,65.10
2019-02-27T00:06:01.034Z,62.47
2019-02-27T00:08:34.553Z,59.50
2019-02-27T00:11:06.296Z,55.13
2019-02-27T00:13:38.801Z,61.67
2019-02-27T00:16:16.830Z,63.10
2019-02-27T00:18:47.429Z,63.17
2019-02-27T00:21:20.391Z,67.57
2019-02-27T00:23:51.803Z,60.83
2019-02-27T00:26:31.409Z,57.73
2019-02-27T00:29:03.923Z,59.67
2019-02-27T00:31:36.105Z,65.67
2019-02-27T00:34:08.008Z,64.17
2019-02-27T00:36:39.856Z,64.13
2019-02-27T00:39:11.006Z,60.47
2019-02-27T00:41:46.068Z,66.80
2019-02-27T00:44:17.519Z,65.10
2019-02-27T00:46:52.770Z,67.90
2019-02-27T00:49:23.562Z,59.63
2019-02-27T00:51:55.040Z,65.17
2019-02-27T00:54:28.962Z,73.40
2019-02-27T00:57:00.090Z,62.43
2019-02-27T00:59:33.100Z,65.70
2019-02-27T01:02:06.572Z,68.80
2019-02-27T01:04:38.175Z,68.20
2019-02-27T01:07:09.664Z,67.57
2019-02-27T01:09:41.083Z,68.40
2019-02-27T01:12:12.441Z,68.80
2019-02-27T01:14:45.002Z,70.70
2019-02-27T01:17:20.952Z,64.73
2019-02-27T01:19:52.438Z,70.10
2019-02-27T01:22:24.484Z,63.93
2019-02-27T01:24:56.741Z,67.90
2019-02-27T01:27:29.312Z,65.33
2019-02-27T01:30:04.074Z,67.87
2019-02-27T01:32:35.040Z,58.23
2019-02-27T01:35:10.008Z,65.00
2019-02-27T01:37:42.556Z,69.10
2019-02-27T01:40:20.369Z,65.67
2019-02-27T01:42:53.756Z,63.67
2019-02-27T01:45:24.997Z,60.07
2019-02-27T01:47:56.923Z,62.97
2019-02-27T01:50:31.124Z,57.20
2019-02-27T01:53:07.009Z,60.70
2019-02-27T01:55:36.975Z,53.80
2019-02-27T01:58:14.446Z,52.73
2019-02-27T02:00:47.535Z,54.40
2019-02-27T02:03:22.866Z,58.00
2019-02-27T02:05:58.770Z,59.77
2019-02-27T02:08:28.784Z,60.03
2019-02-27T02:11:02.321Z,59.97
2019-02-27T02:13:43.324Z,63.47
2019-02-27T02:16:24.059Z,54.53
2019-02-27T02:19:01.652Z,57.57
2019-02-27T02:21:45.167Z,57.47
2019-02-27T02:24:46.222Z,61.50
2019-02-27T02:27:20.984Z,56.33
2019-02-27T02:30:19.580Z,61.43
2019-02-27T02:33:09.266Z,55.55
2019-02-27T02:35:57.105Z,60.45
2019-02-27T02:38:56.313Z,56.25
2019-02-27T02:41:48.244Z,52.03
2019-02-27T02:44:31.987Z,57.85
2019-02-27T02:47:19.526Z,62.90
2019-02-27T02:50:17.392Z,64.47
2019-02-27T02:53:14.381Z,56.80
2019-02-27T02:55:49.910Z,57.80
2019-02-27T02:58:47.249Z,52.08
2019-02-27T03:01:25.105Z,60.45
2019-02-27T03:04:15.781Z,61.68
2019-02-27T03:06:56.048Z,61.73
2019-02-27T03:09:33.368Z,61.28
2019-02-27T03:12:16.734Z,55.33
2019-02-27T03:14:56.903Z,56.98
2019-02-27T03:17:43.308Z,60.80
2019-02-27T03:20:41.648Z,54.75
2019-02-27T03:23:41.198Z,63.13
2019-02-27T03:26:30.711Z,55.05
2019-02-27T03:29:22.620Z,57.60
2019-02-27T03:32:12.330Z,57.65
2019-02-27T03:35:11.946Z,55.15
2019-02-27T03:37:55.529Z,52.78
2019-02-27T03:40:45.096Z,58.03
2019-02-27T03:43:29.675Z,57.37
2019-02-27T03:46:26.468Z,55.83
2019-02-27T03:49:04.542Z,54.63
2019-02-27T03:51:51.941Z,59.35
2019-02-27T03:54:35.660Z,57.78
2019-02-27T03:57:26.356Z,55.43
2019-02-27T04:00:06.610Z,56.28
2019-02-27T04:03:08.555Z,57.10
2019-02-27T04:06:01.804Z,60.65
2019-02-27T04:08:57.561Z,55.12
2019-02-27T04:11:29.325Z,58.10
2019-02-27T04:14:04.691Z,55.55
2019-02-27T04:16:34.833Z,54.40
2019-02-27T04:19:06.758Z,54.43
2019-02-27T04:21:39.746Z,57.17
2019-02-27T04:24:11.873Z,59.27
2019-02-27T04:26:44.600Z,58.50
2019-02-27T04:29:16.034Z,57.05
2019-02-27T04:31:48.258Z,58.55
2019-02-27T04:34:20.516Z,61.53
2019-02-27T04:36:52.516Z,57.60
2019-02-27T04:39:24.793Z,55.40
2019-02-27T04:41:56.720Z,60.08
2019-02-27T04:44:28.747Z,60.88
2019-02-27T04:47:02.040Z,60.67
2019-02-27T04:49:40.435Z,63.40
2019-02-27T04:52:12.107Z,56.25
2019-02-27T04:54:43.488Z,56.58
2019-02-27T04:57:15.306Z,61.05
2019-02-27T04:59:46.321Z,58.42
2019-02-27T05:02:16.948Z,57.85
2019-02-27T05:04:49.372Z,62.27
2019-02-27T05:07:20.946Z,57.45
2019-02-27T05:09:52.728Z,56.83
2019-02-27T05:12:25.398Z,52.23
2019-02-27T05:15:00.938Z,63.95
2019-02-27T05:17:33.537Z,59.18
2019-02-27T05:20:12.466Z,55.08
2019-02-27T05:22:44.525Z,54.77
2019-02-27T05:25:19.385Z,54.08
2019-02-27T05:27:53.594Z,53.80
2019-02-27T05:30:26.874Z,54.27
2019-02-27T05:33:02.249Z,50.37
2019-02-27T05:35:38.198Z,50.87
2019-02-27T05:38:12.062Z,50.67
2019-02-27T05:40:44.454Z,48.90
2019-02-27T05:43:17.831Z,48.53
2019-02-27T05:45:50.263Z,51.27
2019-02-27T05:48:33.637Z,45.43
2019-02-27T05:51:10.642Z,50.47
2019-02-27T05:53:49.757Z,51.97
2019-02-27T05:56:21.373Z,43.40
2019-02-27T05:58:56.823Z,51.70
2019-02-27T06:01:32.950Z,54.40
2019-02-27T06:04:07.985Z,49.65
2019-02-27T06:06:44.980Z,44.15
2019-02-27T06:09:18.037Z,48.00
2019-02-27T06:11:49.947Z,52.70
2019-02-27T06:14:23.182Z,49.53
2019-02-27T06:16:57.041Z,47.10
2019-02-27T06:19:33.616Z,45.30
2019-02-27T06:22:09.237Z,44.87
2019-02-27T06:24:45.545Z,44.97
2019-02-27T06:27:21.282Z,48.57
2019-02-27T06:29:57.044Z,45.43
2019-02-27T06:32:32.420Z,43.63
2019-02-27T06:35:22.120Z,44.53
2019-02-27T06:37:57.089Z,43.87
2019-02-27T06:40:30.992Z,45.10
2019-02-27T06:43:04.273Z,41.90
2019-02-27T06:45:37.209Z,44.00
2019-02-27T06:48:11.649Z,45.40
2019-02-27T06:50:55.227Z,43.93
2019-02-27T06:53:49.901Z,42.30
2019-02-27T06:56:33.894Z,35.73
2019-02-27T06:59:06.462Z,43.87
2019-02-27T07:01:45.020Z,41.47
2019-02-27T07:04:23.170Z,40.67
2019-02-27T07:07:02.044Z,45.60
2019-02-27T07:09:35.581Z,43.77
2019-02-27T07:12:08.105Z,42.47
2019-02-27T07:18:41.660Z,43.40
2019-02-27T07:28:44.963Z,38.60
2019-02-27T07:31:34.687Z,40.60
2019-02-27T07:37:39.415Z,40.03
2019-02-27T07:40:13.098Z,46.97
2019-02-27T07:42:46.647Z,43.93
2019-02-27T07:49:48.236Z,42.83
2019-02-27T08:05:06.238Z,40.53
2019-02-27T08:07:37.554Z,39.27
2019-02-27T08:10:14.254Z,39.10
2019-02-27T08:12:46.181Z,37.23
2019-02-27T08:15:19.091Z,39.50
2019-02-27T08:17:51.011Z,39.47
2019-02-27T08:20:23.643Z,37.17
2019-02-27T08:22:57.809Z,42.73
2019-02-27T08:25:30.693Z,40.63
2019-02-27T08:28:03.426Z,41.43
2019-02-27T08:30:38.088Z,40.47
2019-02-27T08:33:09.099Z,37.80
2019-02-27T08:35:40.140Z,40.53
2019-02-27T08:38:12.795Z,36.67
2019-02-27T08:40:45.666Z,36.37
2019-02-27T08:43:18.484Z,34.43
2019-02-27T08:45:50.116Z,34.30
2019-02-27T08:48:21.745Z,36.47
2019-02-27T08:50:54.113Z,37.37
2019-02-27T08:53:26.796Z,37.20
2019-02-27T08:55:57.548Z,36.30
2019-02-27T08:58:34.966Z,36.60
2019-02-27T09:01:07.930Z,39.30
2019-02-27T09:03:39.103Z,36.70
2019-02-27T09:06:09.745Z,37.47
2019-02-27T09:08:43.169Z,35.43
2019-02-27T09:11:14.707Z,33.90
2019-02-27T09:13:46.076Z,34.97
2019-02-27T09:16:16.784Z,31.83
2019-02-27T09:18:48.506Z,34.37
2019-02-27T09:21:21.763Z,31.07
2019-02-27T09:23:52.962Z,33.77
2019-02-27T09:26:25.246Z,33.07
2019-02-27T09:28:56.452Z,30.67
2019-02-27T09:31:28.151Z,30.80
2019-02-27T09:34:00.226Z,32.23
2019-02-27T09:36:32.597Z,31.87
2019-02-27T09:39:04.875Z,32.17
2019-02-27T09:41:37.472Z,33.53
2019-02-27T09:44:08.198Z,27.67
2019-02-27T09:46:40.023Z,29.67
2019-02-27T09:49:12.199Z,28.77
2019-02-27T09:51:43.261Z,28.07
2019-02-27T09:54:15.042Z,27.27
2019-02-27T09:56:50.646Z,26.87
2019-02-27T09:59:34.558Z,26.50
2019-02-27T10:02:15.342Z,27.47
2019-02-27T10:19:02.208Z,28.73
2019-02-27T10:21:34.744Z,29.63
2019-02-27T10:24:05.988Z,28.40
2019-02-27T10:26:37.570Z,30.60
2019-02-27T10:29:10.944Z,28.80
2019-02-27T10:31:42.466Z,31.23
2019-02-27T10:35:41.478Z,32.30
2019-02-27T10:37:16.586Z,31.03
2019-02-27T10:39:51.112Z,32.50
2019-02-27T10:42:22.582Z,30.13
2019-02-27T10:44:53.669Z,32.23
2019-02-27T10:47:25.879Z,33.30
2019-02-27T10:50:01.625Z,35.43
2019-02-27T10:52:31.537Z,35.03
2019-02-27T10:55:03.479Z,38.17
2019-02-27T10:57:38.356Z,37.03
2019-02-27T11:00:16.969Z,32.07
2019-02-27T11:06:12.540Z,34.43
2019-02-27T11:08:45.278Z,32.10
2019-02-27T11:11:19.351Z,31.63
2019-02-27T11:13:55.412Z,28.43
2019-02-27T11:26:09.990Z,29.83
2019-02-27T11:28:47.355Z,27.20
2019-02-27T11:31:16.431Z,29.00
2019-02-27T11:33:48.093Z,25.87
2019-02-27T11:39:41.018Z,28.13
2019-02-27T11:42:11.588Z,27.87
2019-02-27T11:44:42.994Z,29.67
2019-02-27T11:47:23.247Z,30.17
2019-02-27T11:49:55.524Z,30.40
2019-02-27T11:52:28.859Z,30.87
2019-02-27T11:55:03.649Z,30.53
2019-02-27T11:57:40.257Z,31.73
2019-02-27T12:00:17.976Z,33.77
2019-02-27T12:02:55.886Z,34.03
2019-02-27T12:08:46.163Z,33.63
2019-02-27T12:11:20.434Z,34.80
2019-02-27T12:17:16.472Z,33.50
2019-02-27T12:19:47.675Z,29.80
2019-02-27T12:22:19.895Z,30.57
2019-02-27T12:24:53.470Z,31.43
2019-02-27T12:27:45.079Z,30.07
2019-02-27T12:29:56.134Z,31.30
2019-02-27T12:32:35.096Z,33.43
2019-02-27T12:35:10.842Z,33.90
2019-02-27T12:37:44.760Z,38.80
2019-02-27T12:40:18.430Z,36.03
2019-02-27T12:42:51.159Z,32.57
2019-02-27T12:45:25.872Z,32.90
2019-02-27T12:47:58.122Z,29.77
2019-02-27T12:50:33.118Z,29.47
2019-02-27T12:53:07.910Z,28.00
2019-02-27T12:55:40.840Z,28.77
2019-02-27T12:58:11.292Z,30.33
2019-02-27T13:00:46.662Z,31.30
2019-02-27T13:06:54.678Z,26.40
2019-02-27T13:09:27.284Z,30.23
2019-02-27T13:11:59.894Z,31.03
2019-02-27T13:14:33.283Z,30.37
2019-02-27T13:17:25.583Z,26.97
2019-02-27T13:20:00.014Z,31.93
2019-02-27T13:22:34.210Z,30.43
2019-02-27T13:25:06.266Z,30.80
2019-02-27T13:27:40.309Z,31.67
2019-02-27T13:30:15.357Z,30.83
2019-02-27T13:32:46.577Z,25.37
2019-02-27T13:35:20.047Z,28.37
2019-02-27T13:41:10.436Z,29.83
2019-02-27T13:47:16.876Z,29.17
2019-02-27T13:50:22.154Z,31.97
2019-02-27T13:52:53.713Z,29.20
2019-02-27T13:55:25.164Z,30.73
2019-02-27T14:01:21.512Z,29.43
2019-02-27T14:03:56.348Z,30.23
2019-02-27T14:13:46.501Z,29.17
2019-02-27T14:16:18.255Z,28.20
2019-02-27T14:18:50.827Z,29.53
2019-02-27T14:21:22.130Z,28.00
2019-02-27T14:23:53.388Z,29.80
2019-02-27T14:26:29.702Z,25.90
2019-02-27T14:29:09.122Z,27.27
2019-02-27T14:31:54.949Z,27.30
2019-02-27T14:34:43.814Z,26.43
2019-02-27T14:37:17.964Z,23.60
2019-02-27T14:39:51.913Z,28.13
2019-02-27T14:42:34.729Z,25.87
2019-02-27T14:48:31.016Z,26.97
2019-02-27T14:51:08.002Z,25.07
2019-02-27T14:54:01.204Z,24.70
2019-02-27T14:56:33.518Z,28.23
2019-02-27T14:59:08.176Z,22.53
2019-02-27T15:01:40.191Z,26.17
2019-02-27T15:04:12.497Z,26.17
2019-02-27T15:06:43.896Z,28.07
2019-02-27T15:09:15.910Z,24.40
2019-02-27T15:11:48.997Z,25.43
2019-02-27T15:14:32.776Z,24.73
2019-02-27T15:31:25.032Z,27.50
2019-02-27T15:33:57.116Z,30.73
2019-02-27T15:36:30.368Z,28.00
2019-02-27T15:42:08.576Z,29.10
2019-02-27T15:44:51.351Z,35.47
2019-02-27T15:47:22.277Z,29.90
2019-02-27T15:49:54.003Z,30.87
2019-02-27T15:52:34.107Z,30.97
2019-02-27T15:55:05.610Z,33.60
2019-02-27T15:57:36.667Z,33.90
2019-02-27T16:00:30.383Z,35.67
2019-02-27T16:03:01.163Z,35.27
2019-02-27T16:05:41.055Z,36.83
2019-02-27T16:08:12.394Z,35.83
2019-02-27T16:10:54.363Z,34.73
2019-02-27T16:13:21.762Z,34.20
2019-02-27T16:15:54.801Z,37.77
2019-02-27T16:18:26.922Z,36.07
2019-02-27T16:20:57.895Z,37.73
2019-02-27T16:23:28.927Z,37.00
2019-02-27T16:26:00.625Z,39.87
2019-02-27T16:28:32.099Z,42.07
2019-02-27T16:31:06.235Z,42.13
2019-02-27T16:33:38.472Z,40.47
2019-02-27T16:36:09.426Z,38.20
2019-02-27T16:38:41.666Z,37.83
2019-02-27T16:41:13.598Z,38.77
2019-02-27T16:43:47.737Z,40.73
2019-02-27T16:46:17.248Z,35.70
2019-02-27T16:48:49.299Z,35.60
2019-02-27T16:51:22.011Z,41.03
2019-02-27T16:53:54.695Z,38.77
2019-02-27T16:56:26.704Z,41.00
2019-02-27T16:58:59.312Z,37.60
2019-02-27T17:01:34.155Z,43.50
2019-02-27T17:04:14.251Z,44.33
2019-02-27T17:06:52.301Z,41.57
2019-02-27T17:09:29.897Z,40.17
2019-02-27T17:12:07.959Z,37.70
2019-02-27T17:15:14.248Z,41.30
2019-02-27T17:18:03.960Z,38.73
2019-02-27T17:20:35.887Z,37.67
2019-02-27T17:23:10.647Z,39.93
2019-02-27T17:25:39.552Z,36.87
2019-02-27T17:28:11.738Z,37.63
2019-02-27T17:30:42.991Z,38.40
2019-02-27T17:36:46.381Z,35.77
2019-02-27T17:39:30.406Z,36.23
2019-02-27T17:42:09.808Z,35.53
2019-02-27T17:44:42.866Z,38.03
2019-02-27T17:47:16.272Z,35.03
2019-02-27T17:49:52.852Z,32.87
2019-02-27T17:52:28.632Z,37.63
2019-02-27T17:55:06.697Z,34.83
2019-02-27T17:57:41.822Z,33.80
2019-02-27T18:00:28.592Z,36.23
2019-02-27T18:03:01.049Z,35.33
2019-02-27T18:05:32.400Z,38.37
2019-02-27T18:08:04.731Z,36.30
2019-02-27T18:10:37.657Z,35.13
2019-02-27T18:13:09.146Z,32.00
2019-02-27T18:15:40.879Z,34.70
2019-02-27T18:18:12.463Z,35.43
2019-02-27T18:20:44.344Z,40.90
2019-02-27T18:23:16.595Z,37.10
2019-02-27T18:25:49.396Z,41.87
2019-02-27T18:28:20.322Z,38.47
2019-02-27T18:30:53.790Z,33.83
2019-02-27T18:33:26.081Z,36.03
2019-02-27T18:36:04.319Z,37.33
2019-02-27T18:38:32.294Z,36.47
2019-02-27T18:41:03.987Z,37.00
2019-02-27T18:43:36.486Z,36.73
2019-02-27T18:46:07.921Z,36.97
2019-02-27T18:48:43.566Z,39.87
2019-02-27T18:51:12.958Z,35.80
2019-02-27T18:53:48.259Z,39.13
2019-02-27T18:56:21.354Z,41.27
2019-02-27T18:58:56.445Z,38.33
2019-02-27T19:01:29.554Z,40.40
2019-02-27T19:04:06.560Z,37.37
2019-02-27T19:06:37.070Z,41.53
2019-02-27T19:09:12.102Z,40.90
2019-02-27T19:11:47.456Z,37.60
2019-02-27T19:14:19.276Z,36.73
2019-02-27T19:16:54.895Z,37.27
2019-02-27T19:19:26.519Z,40.80
2019-02-27T19:21:59.660Z,42.27
2019-02-27T19:24:33.474Z,37.77
2019-02-27T19:27:07.408Z,40.00
2019-02-27T19:29:39.502Z,39.73
2019-02-27T19:32:11.680Z,39.60
2019-02-27T19:34:44.751Z,42.17
2019-02-27T19:37:17.045Z,42.53
2019-02-27T19:39:50.264Z,42.33
2019-02-27T19:42:22.580Z,39.83
2019-02-27T19:44:54.579Z,42.77
2019-02-27T19:47:26.471Z,43.63
2019-02-27T19:49:58.567Z,38.50
2019-02-27T19:52:31.420Z,46.80
2019-02-27T19:55:04.269Z,43.07
2019-02-27T19:57:35.899Z,40.70
2019-02-27T20:00:33.520Z,41.23
2019-02-27T20:03:02.392Z,41.90
2019-02-27T20:05:36.839Z,40.27
2019-02-27T20:08:10.867Z,44.73
2019-02-27T20:10:47.987Z,42.70
2019-02-27T20:13:24.756Z,44.47
2019-02-27T20:15:57.560Z,48.00
2019-02-27T20:18:31.340Z,42.23
2019-02-27T20:21:06.369Z,43.40
2019-02-27T20:23:43.923Z,41.83
2019-02-27T20:26:20.009Z,42.13
2019-02-27T20:28:52.251Z,43.83
2019-02-27T20:31:28.120Z,44.17
2019-02-27T20:34:02.921Z,45.47
2019-02-27T20:36:36.283Z,43.57
2019-02-27T20:39:09.982Z,42.47
2019-02-27T20:41:43.755Z,44.53
2019-02-27T20:44:17.345Z,40.80
2019-02-27T20:46:52.949Z,40.00
2019-02-27T20:49:26.930Z,48.33
2019-02-27T20:52:00.569Z,38.17
2019-02-27T20:54:32.503Z,43.47
2019-02-27T20:57:08.147Z,40.40
2019-02-27T20:59:38.681Z,42.97
2019-02-27T21:02:11.110Z,42.10
2019-02-27T21:04:44.476Z,40.93
2019-02-27T21:07:22.324Z,39.77
2019-02-27T21:09:50.340Z,43.03
2019-02-27T21:12:22.287Z,40.90
2019-02-27T21:14:55.108Z,44.10
2019-02-27T21:17:28.991Z,40.70
2019-02-27T21:20:00.993Z,45.80
2019-02-27T21:22:35.631Z,43.53
2019-02-27T21:25:12.055Z,39.00
2019-02-27T21:27:44.495Z,39.67
2019-02-27T21:30:23.381Z,38.03
2019-02-27T21:32:56.421Z,42.27
2019-02-27T21:35:29.916Z,43.07
2019-02-27T21:38:01.034Z,42.47
2019-02-27T21:40:33.365Z,47.73
2019-02-27T21:43:07.984Z,43.93
2019-02-27T21:45:39.153Z,46.90
2019-02-27T21:48:14.105Z,43.57
2019-02-27T21:50:47.680Z,48.73
2019-02-27T21:53:21.169Z,46.83
2019-02-27T21:55:53.939Z,49.47
2019-02-27T21:58:31.962Z,48.33
2019-02-27T22:01:02.795Z,48.77
2019-02-27T22:03:35.197Z,47.83
2019-02-27T22:06:09.959Z,48.47
2019-02-27T22:08:41.473Z,47.27
2019-02-27T22:11:13.239Z,47.83
2019-02-27T22:13:45.918Z,58.50
2019-02-27T22:16:17.661Z,53.50
2019-02-27T22:18:49.230Z,54.47
2019-02-27T22:21:21.953Z,52.40
2019-02-27T22:23:53.861Z,52.47
2019-02-27T22:26:25.413Z,53.93
2019-02-27T22:28:57.102Z,49.57
2019-02-27T22:31:28.660Z,51.83
2019-02-27T22:33:59.410Z,56.57
2019-02-27T22:36:31.316Z,53.23
2019-02-27T22:39:03.092Z,52.73
2019-02-27T22:41:33.669Z,55.47
2019-02-27T22:44:04.620Z,54.33
2019-02-27T22:46:36.411Z,52.83
2019-02-27T22:49:07.595Z,57.90
2019-02-27T22:51:39.101Z,54.63
2019-02-27T22:54:11.434Z,57.67
2019-02-27T22:56:42.636Z,54.53
2019-02-27T22:59:15.123Z,59.77
2019-02-27T23:01:50.667Z,59.20
2019-02-27T23:04:20.189Z,58.30
2019-02-27T23:06:52.294Z,59.83
2019-02-27T23:09:25.613Z,61.73
2019-02-27T23:11:57.255Z,63.33
2019-02-27T23:14:29.635Z,66.17
2019-02-27T23:17:01.333Z,65.03
2019-02-27T23:19:33.204Z,62.87
2019-02-27T23:22:05.666Z,64.97
2019-02-27T23:24:43.307Z,71.70
2019-02-27T23:27:11.558Z,71.57
2019-02-27T23:29:44.149Z,69.90
2019-02-27T23:32:16.706Z,71.97
2019-02-27T23:34:48.243Z,70.53
2019-02-27T23:37:19.356Z,70.30
2019-02-27T23:39:50.727Z,77.33
2019-02-27T23:42:23.410Z,72.60
2019-02-27T23:44:56.455Z,72.23
2019-02-27T23:47:28.693Z,70.23
2019-02-27T23:50:01.931Z,76.93
2019-02-27T23:52:33.038Z,77.27
2019-02-27T23:55:07.202Z,71.67
2019-02-27T23:57:40.177Z,74.57
